sensor_id;sensor_type;location;lat;lon;timestamp;pressure;altitude;pressure_sealevel;temperature;humidity
1616;BME280;801;47.982;7.810;2022-09-21T02:32:01;99306.69;;;9.80;100.00
1616;BME280;801;47.982;7.810;2022-09-21T02:34:33;99311.25;;;9.79;100.00
1616;BME280;801;47.982;7.810;2022-09-21T02:37:10;99315.31;;;9.82;100.00
1616;BME280;801;47.982;7.810;2022-09-21T02:39:46;99311.28;;;9.67;100.00
1616;BME280;801;47.982;7.810;2022-09-21T02:42:17;99317.13;;;9.76;100.00
1616;BME280;801;47.982;7.810;2022-09-21T02:44:49;99319.34;;;9.67;100.00
1616;BME280;801;47.982;7.810;2022-09-21T02:47:23;99314.66;;;9.74;100.00
1616;BME280;801;47.982;7.810;2022-09-21T02:49:56;99313.97;;;9.67;100.00
1616;BME280;801;47.982;7.810;2022-09-21T02:52:27;99318.53;;;9.55;100.00
1616;BME280;801;47.982;7.810;2022-09-21T02:54:55;99312.00;;;9.63;100.00
1616;BME280;801;47.982;7.810;2022-09-21T02:57:23;99318.09;;;9.34;100.00
1616;BME280;801;47.982;7.810;2022-09-21T02:59:50;99309.69;;;9.19;100.00
1616;BME280;801;47.982;7.810;2022-09-21T03:02:18;99307.84;;;9.31;100.00
1616;BME280;801;47.982;7.810;2022-09-21T03:04:46;99316.00;;;9.25;100.00
1616;BME280;801;47.982;7.810;2022-09-21T03:07:14;99312.38;;;9.19;100.00
1616;BME280;801;47.982;7.810;2022-09-21T03:09:41;99307.63;;;9.09;100.00
1616;BME280;801;47.982;7.810;2022-09-21T03:12:07;99308.44;;;9.33;100.00
1616;BME280;801;47.982;7.810;2022-09-21T03:14:34;99312.63;;;9.29;100.00
1616;BME280;801;47.982;7.810;2022-09-21T03:17:00;99311.22;;;9.39;100.00
1616;BME280;801;47.982;7.810;2022-09-21T03:19:28;99316.69;;;9.44;100.00
1616;BME280;801;47.982;7.810;2022-09-21T03:21:55;99315.16;;;9.48;100.00
1616;BME280;801;47.982;7.810;2022-09-21T03:24:21;99320.53;;;9.48;100.00
1616;BME280;801;47.982;7.810;2022-09-21T03:27:02;99323.00;;;9.49;100.00
1616;BME280;801;47.982;7.810;2022-09-21T03:29:28;99325.66;;;9.61;100.00
1616;BME280;801;47.982;7.810;2022-09-21T03:31:55;99317.50;;;9.44;100.00
1616;BME280;801;47.982;7.810;2022-09-21T03:34:21;99323.00;;;9.49;100.00
1616;BME280;801;47.982;7.810;2022-09-21T03:36:49;99318.00;;;9.29;100.00
1616;BME280;801;47.982;7.810;2022-09-21T03:39:16;99320.31;;;9.14;100.00
1616;BME280;801;47.982;7.810;2022-09-21T03:41:42;99315.66;;;9.21;100.00
1616;BME280;801;47.982;7.810;2022-09-21T03:44:09;99314.63;;;9.22;100.00
1616;BME280;801;47.982;7.810;2022-09-21T03:46:35;99318.44;;;9.26;100.00
1616;BME280;801;47.982;7.810;2022-09-21T03:49:02;99314.03;;;9.20;100.00
1616;BME280;801;47.982;7.810;2022-09-21T03:51:29;99322.19;;;9.25;100.00
1616;BME280;801;47.982;7.810;2022-09-21T03:53:57;99321.13;;;9.14;100.00
1616;BME280;801;47.982;7.810;2022-09-21T03:56:24;99328.59;;;9.12;100.00
1616;BME280;801;47.982;7.810;2022-09-21T03:58:50;99323.00;;;9.02;100.00
1616;BME280;801;47.982;7.810;2022-09-21T04:01:17;99317.22;;;8.75;100.00
1616;BME280;801;47.982;7.810;2022-09-21T04:03:43;99321.34;;;8.78;100.00
1616;BME280;801;47.982;7.810;2022-09-21T04:06:11;99318.50;;;8.72;100.00
1616;BME280;801;47.982;7.810;2022-09-21T04:08:37;99324.91;;;8.60;100.00
1616;BME280;801;47.982;7.810;2022-09-21T04:11:10;99329.69;;;8.39;100.00
1616;BME280;801;47.982;7.810;2022-09-21T04:13:37;99329.69;;;8.39;100.00
1616;BME280;801;47.982;7.810;2022-09-21T04:16:04;99321.66;;;8.58;100.00
1616;BME280;801;47.982;7.810;2022-09-21T04:18:31;99332.00;;;8.54;100.00
1616;BME280;801;47.982;7.810;2022-09-21T04:20:57;99329.09;;;8.56;100.00
1616;BME280;801;47.982;7.810;2022-09-21T04:23:24;99329.13;;;8.67;100.00
1616;BME280;801;47.982;7.810;2022-09-21T04:25:52;99331.66;;;8.62;100.00
1616;BME280;801;47.982;7.810;2022-09-21T04:28:21;99336.06;;;8.26;100.00
1616;BME280;801;47.982;7.810;2022-09-21T04:30:51;99336.66;;;8.28;100.00
1616;BME280;801;47.982;7.810;2022-09-21T04:33:18;99334.41;;;8.25;100.00
1616;BME280;801;47.982;7.810;2022-09-21T04:35:53;99328.31;;;8.06;100.00
1616;BME280;801;47.982;7.810;2022-09-21T04:38:20;99330.19;;;7.69;100.00
1616;BME280;801;47.982;7.810;2022-09-21T04:40:53;99335.59;;;7.81;100.00
1616;BME280;801;47.982;7.810;2022-09-21T04:43:21;99326.56;;;8.12;100.00
1616;BME280;801;47.982;7.810;2022-09-21T04:45:48;99333.56;;;7.95;100.00
1616;BME280;801;47.982;7.810;2022-09-21T04:48:15;99330.81;;;8.20;100.00
1616;BME280;801;47.982;7.810;2022-09-21T04:50:42;99331.06;;;8.30;100.00
1616;BME280;801;47.982;7.810;2022-09-21T04:53:08;99338.50;;;8.28;100.00
1616;BME280;801;47.982;7.810;2022-09-21T04:55:35;99341.22;;;8.09;100.00
1616;BME280;801;47.982;7.810;2022-09-21T04:58:01;99332.56;;;8.44;100.00
1616;BME280;801;47.982;7.810;2022-09-21T05:00:29;99333.91;;;8.17;100.00
1616;BME280;801;47.982;7.810;2022-09-21T05:02:56;99342.00;;;8.47;100.00
1616;BME280;801;47.982;7.810;2022-09-21T05:05:22;99341.09;;;8.65;100.00
1616;BME280;801;47.982;7.810;2022-09-21T05:07:49;99346.25;;;8.66;100.00
1616;BME280;801;47.982;7.810;2022-09-21T05:10:15;99344.34;;;8.55;100.00
1616;BME280;801;47.982;7.810;2022-09-21T05:12:41;99351.06;;;8.46;100.00
1616;BME280;801;47.982;7.810;2022-09-21T05:15:08;99348.44;;;8.39;100.00
1616;BME280;801;47.982;7.810;2022-09-21T05:17:36;99358.31;;;8.27;100.00
1616;BME280;801;47.982;7.810;2022-09-21T05:20:04;99363.38;;;8.17;100.00
1616;BME280;801;47.982;7.810;2022-09-21T05:22:30;99361.28;;;8.19;100.00
1616;BME280;801;47.982;7.810;2022-09-21T05:24:57;99353.84;;;8.21;100.00
1616;BME280;801;47.982;7.810;2022-09-21T05:27:23;99349.31;;;8.21;100.00
1616;BME280;801;47.982;7.810;2022-09-21T05:29:50;99359.69;;;7.99;100.00
1616;BME280;801;47.982;7.810;2022-09-21T05:32:22;99351.94;;;8.09;100.00
1616;BME280;801;47.982;7.810;2022-09-21T05:35:00;99355.22;;;7.93;100.00
1616;BME280;801;47.982;7.810;2022-09-21T05:37:42;99355.81;;;7.95;100.00
1616;BME280;801;47.982;7.810;2022-09-21T05:40:11;99353.31;;;7.82;100.00
1616;BME280;801;47.982;7.810;2022-09-21T05:42:38;99351.38;;;7.89;100.00
1616;BME280;801;47.982;7.810;2022-09-21T05:45:06;99352.16;;;8.08;100.00
1616;BME280;801;47.982;7.810;2022-09-21T05:47:37;99355.94;;;8.19;100.00
1616;BME280;801;47.982;7.810;2022-09-21T05:50:19;99362.03;;;8.07;100.00
1616;BME280;801;47.982;7.810;2022-09-21T05:52:57;99364.56;;;8.21;100.00
1616;BME280;801;47.982;7.810;2022-09-21T05:55:33;99374.84;;;8.24;100.00
1616;BME280;801;47.982;7.810;2022-09-21T05:58:08;99369.53;;;8.36;100.00
1616;BME280;801;47.982;7.810;2022-09-21T06:00:41;99367.28;;;8.32;100.00
1616;BME280;801;47.982;7.810;2022-09-21T06:03:26;99369.59;;;8.29;100.00
1616;BME280;801;47.982;7.810;2022-09-21T06:05:55;99371.78;;;8.20;100.00
1616;BME280;801;47.982;7.810;2022-09-21T06:08:22;99370.28;;;8.24;100.00
1616;BME280;801;47.982;7.810;2022-09-21T06:10:49;99369.56;;;8.17;100.00
1616;BME280;801;47.982;7.810;2022-09-21T06:13:16;99357.13;;;8.23;100.00
1616;BME280;801;47.982;7.810;2022-09-21T06:15:42;99358.34;;;8.39;100.00
1616;BME280;801;47.982;7.810;2022-09-21T06:18:09;99369.28;;;8.37;100.00
1616;BME280;801;47.982;7.810;2022-09-21T06:20:35;99366.22;;;8.52;100.00
1616;BME280;801;47.982;7.810;2022-09-21T06:23:05;99367.06;;;8.34;100.00
1616;BME280;801;47.982;7.810;2022-09-21T06:25:32;99368.66;;;8.42;100.00
1616;BME280;801;47.982;7.810;2022-09-21T06:28:01;99374.00;;;8.23;100.00
1616;BME280;801;47.982;7.810;2022-09-21T06:30:28;99371.91;;;8.44;100.00
1616;BME280;801;47.982;7.810;2022-09-21T06:32:58;99368.56;;;8.48;100.00
1616;BME280;801;47.982;7.810;2022-09-21T06:35:25;99369.72;;;8.52;100.00
1616;BME280;801;47.982;7.810;2022-09-21T06:37:51;99361.16;;;8.62;100.00
1616;BME280;801;47.982;7.810;2022-09-21T06:40:23;99362.44;;;8.60;100.00
1616;BME280;801;47.982;7.810;2022-09-21T06:42:54;99367.19;;;8.58;100.00
1616;BME280;801;47.982;7.810;2022-09-21T06:45:21;99361.88;;;8.81;100.00
1616;BME280;801;47.982;7.810;2022-09-21T06:47:47;99369.00;;;8.87;100.00
1616;BME280;801;47.982;7.810;2022-09-21T06:50:14;99375.88;;;8.83;100.00
1616;BME280;801;47.982;7.810;2022-09-21T06:52:40;99373.56;;;8.99;100.00
1616;BME280;801;47.982;7.810;2022-09-21T06:55:07;99374.03;;;8.96;100.00
1616;BME280;801;47.982;7.810;2022-09-21T06:57:36;99372.38;;;8.83;100.00
1616;BME280;801;47.982;7.810;2022-09-21T07:00:06;99377.31;;;8.98;100.00
1616;BME280;801;47.982;7.810;2022-09-21T07:02:33;99379.16;;;8.97;100.00
1616;BME280;801;47.982;7.810;2022-09-21T07:05:00;99380.00;;;9.21;100.00
1616;BME280;801;47.982;7.810;2022-09-21T07:07:27;99374.53;;;9.16;100.00
1616;BME280;801;47.982;7.810;2022-09-21T07:09:55;99380.13;;;9.26;100.00
1616;BME280;801;47.982;7.810;2022-09-21T07:12:23;99381.66;;;9.22;100.00
1616;BME280;801;47.982;7.810;2022-09-21T07:14:51;99385.38;;;9.21;100.00
1616;BME280;801;47.982;7.810;2022-09-21T07:17:18;99382.69;;;9.33;100.00
1616;BME280;801;47.982;7.810;2022-09-21T07:19:44;99390.28;;;9.48;100.00
1616;BME280;801;47.982;7.810;2022-09-21T07:22:11;99385.50;;;9.62;100.00
1616;BME280;801;47.982;7.810;2022-09-21T07:24:37;99379.31;;;9.38;100.00
1616;BME280;801;47.982;7.810;2022-09-21T07:27:04;99381.44;;;9.47;100.00
1616;BME280;801;47.982;7.810;2022-09-21T07:29:31;99378.75;;;9.59;100.00
1616;BME280;801;47.982;7.810;2022-09-21T07:31:58;99381.06;;;9.67;100.00
1616;BME280;801;47.982;7.810;2022-09-21T07:34:25;99385.97;;;9.59;100.00
1616;BME280;801;47.982;7.810;2022-09-21T07:36:51;99380.38;;;9.60;100.00
1616;BME280;801;47.982;7.810;2022-09-21T07:39:18;99376.97;;;9.53;100.00
1616;BME280;801;47.982;7.810;2022-09-21T07:41:44;99379.91;;;9.63;100.00
1616;BME280;801;47.982;7.810;2022-09-21T07:44:11;99379.31;;;9.61;100.00
1616;BME280;801;47.982;7.810;2022-09-21T07:46:37;99377.78;;;9.77;100.00
1616;BME280;801;47.982;7.810;2022-09-21T07:49:05;99383.38;;;9.87;100.00
1616;BME280;801;47.982;7.810;2022-09-21T07:51:32;99384.09;;;9.83;100.00
1616;BME280;801;47.982;7.810;2022-09-21T07:53:58;99380.31;;;9.95;100.00
1616;BME280;801;47.982;7.810;2022-09-21T07:56:25;99386.13;;;10.04;100.00
1616;BME280;801;47.982;7.810;2022-09-21T07:58:52;99388.81;;;10.04;100.00
1616;BME280;801;47.982;7.810;2022-09-21T08:01:33;99378.91;;;10.05;100.00
1616;BME280;801;47.982;7.810;2022-09-21T08:04:01;99381.81;;;10.03;100.00
1616;BME280;801;47.982;7.810;2022-09-21T08:06:30;99384.47;;;10.15;100.00
1616;BME280;801;47.982;7.810;2022-09-21T08:08:57;99383.94;;;10.01;100.00
1616;BME280;801;47.982;7.810;2022-09-21T08:11:25;99384.81;;;10.18;100.00
1616;BME280;801;47.982;7.810;2022-09-21T08:13:53;99384.84;;;10.07;100.00
1616;BME280;801;47.982;7.810;2022-09-21T08:16:20;99383.66;;;10.14;100.00
1616;BME280;801;47.982;7.810;2022-09-21T08:18:47;99376.59;;;9.96;100.00
1616;BME280;801;47.982;7.810;2022-09-21T08:21:13;99382.81;;;10.26;100.00
1616;BME280;801;47.982;7.810;2022-09-21T08:23:41;99381.63;;;10.33;100.00
1616;BME280;801;47.982;7.810;2022-09-21T08:26:11;99378.13;;;10.62;100.00
1616;BME280;801;47.982;7.810;2022-09-21T08:28:42;99376.03;;;10.64;100.00
1616;BME280;801;47.982;7.810;2022-09-21T08:31:13;99368.06;;;10.69;100.00
1616;BME280;801;47.982;7.810;2022-09-21T08:33:40;99372.47;;;10.75;100.00
1616;BME280;801;47.982;7.810;2022-09-21T08:36:07;99369.47;;;10.88;100.00
1616;BME280;801;47.982;7.810;2022-09-21T08:38:35;99375.34;;;11.02;100.00
1616;BME280;801;47.982;7.810;2022-09-21T08:41:13;99368.44;;;11.23;100.00
1616;BME280;801;47.982;7.810;2022-09-21T08:43:43;99370.63;;;11.26;100.00
1616;BME280;801;47.982;7.810;2022-09-21T08:46:12;99368.44;;;11.23;100.00
1616;BME280;801;47.982;7.810;2022-09-21T08:48:42;99371.91;;;11.40;100.00
1616;BME280;801;47.982;7.810;2022-09-21T08:51:14;99373.59;;;11.47;100.00
1616;BME280;801;47.982;7.810;2022-09-21T08:53:44;99371.91;;;11.79;100.00
1616;BME280;801;47.982;7.810;2022-09-21T08:56:14;99373.88;;;11.67;100.00
1616;BME280;801;47.982;7.810;2022-09-21T08:58:41;99370.63;;;11.65;100.00
1616;BME280;801;47.982;7.810;2022-09-21T09:01:24;99370.22;;;11.90;100.00
1616;BME280;801;47.982;7.810;2022-09-21T09:04:05;99366.31;;;12.03;100.00
1616;BME280;801;47.982;7.810;2022-09-21T09:06:40;99365.75;;;12.01;100.00
1616;BME280;801;47.982;7.810;2022-09-21T09:09:22;99357.59;;;12.18;100.00
1616;BME280;801;47.982;7.810;2022-09-21T09:12:04;99363.81;;;12.18;100.00
1616;BME280;801;47.982;7.810;2022-09-21T09:14:46;99360.84;;;12.42;100.00
1616;BME280;801;47.982;7.810;2022-09-21T09:17:26;99358.44;;;12.73;100.00
1616;BME280;801;47.982;7.810;2022-09-21T09:20:00;99358.19;;;13.06;100.00
1616;BME280;801;47.982;7.810;2022-09-21T09:22:34;99348.34;;;13.27;100.00
1616;BME280;801;47.982;7.810;2022-09-21T09:25:03;99353.81;;;13.00;100.00
1616;BME280;801;47.982;7.810;2022-09-21T09:27:34;99354.34;;;12.97;100.00
1616;BME280;801;47.982;7.810;2022-09-21T09:30:08;99341.28;;;13.21;100.00
1616;BME280;801;47.982;7.810;2022-09-21T09:32:41;99341.34;;;13.26;100.00
1616;BME280;801;47.982;7.810;2022-09-21T09:35:17;99334.72;;;13.97;100.00
1616;BME280;801;47.982;7.810;2022-09-21T09:37:48;99335.50;;;13.93;100.00
1616;BME280;801;47.982;7.810;2022-09-21T09:40:24;99334.13;;;13.80;100.00
1616;BME280;801;47.982;7.810;2022-09-21T09:43:03;99334.22;;;14.00;100.00
1616;BME280;801;47.982;7.810;2022-09-21T09:45:41;99318.63;;;14.38;100.00
1616;BME280;801;47.982;7.810;2022-09-21T09:48:19;99328.63;;;14.32;100.00
1616;BME280;801;47.982;7.810;2022-09-21T09:50:51;99326.56;;;14.60;100.00
1616;BME280;801;47.982;7.810;2022-09-21T09:53:20;99322.22;;;14.69;100.00
1616;BME280;801;47.982;7.810;2022-09-21T09:55:49;99322.78;;;14.92;100.00
1616;BME280;801;47.982;7.810;2022-09-21T09:58:19;99312.47;;;15.09;100.00
1616;BME280;801;47.982;7.810;2022-09-21T10:00:49;99308.13;;;15.19;100.00
1616;BME280;801;47.982;7.810;2022-09-21T10:03:18;99311.09;;;15.32;100.00
1616;BME280;801;47.982;7.810;2022-09-21T10:05:46;99307.47;;;15.63;100.00
1616;BME280;801;47.982;7.810;2022-09-21T10:11:09;99309.09;;;15.79;96.43
1616;BME280;801;47.982;7.810;2022-09-21T10:13:38;99301.97;;;15.98;91.93
1616;BME280;801;47.982;7.810;2022-09-21T10:16:11;99300.47;;;16.22;94.13
1616;BME280;801;47.982;7.810;2022-09-21T10:18:41;99293.59;;;16.79;89.40
1616;BME280;801;47.982;7.810;2022-09-21T10:21:16;99295.06;;;16.61;86.43
1616;BME280;801;47.982;7.810;2022-09-21T10:23:45;99287.91;;;16.41;87.08
1616;BME280;801;47.982;7.810;2022-09-21T10:26:13;99278.19;;;17.04;88.71
1616;BME280;801;47.982;7.810;2022-09-21T10:28:56;99277.25;;;17.67;82.49
1616;BME280;801;47.982;7.810;2022-09-21T10:31:25;99272.91;;;17.17;83.57
1616;BME280;801;47.982;7.810;2022-09-21T10:33:54;99270.59;;;17.54;85.43
1616;BME280;801;47.982;7.810;2022-09-21T10:36:31;99268.50;;;17.70;77.58
1616;BME280;801;47.982;7.810;2022-09-21T10:39:17;99273.13;;;17.69;82.37
1616;BME280;801;47.982;7.810;2022-09-21T10:41:47;99258.59;;;17.79;81.96
1616;BME280;801;47.982;7.810;2022-09-21T10:44:17;99263.06;;;17.70;81.97
1616;BME280;801;47.982;7.810;2022-09-21T10:46:46;99252.44;;;17.73;81.75
1616;BME280;801;47.982;7.810;2022-09-21T10:49:20;99256.53;;;18.14;79.15
1616;BME280;801;47.982;7.810;2022-09-21T10:51:48;99255.47;;;18.48;77.07
1616;BME280;801;47.982;7.810;2022-09-21T10:54:20;99254.03;;;17.74;75.59
1616;BME280;801;47.982;7.810;2022-09-21T10:56:53;99251.56;;;18.54;73.54
1616;BME280;801;47.982;7.810;2022-09-21T10:59:24;99249.97;;;19.32;68.11
1616;BME280;801;47.982;7.810;2022-09-21T11:01:52;99238.59;;;18.83;69.44
1616;BME280;801;47.982;7.810;2022-09-21T11:04:27;99243.59;;;19.09;66.58
1616;BME280;801;47.982;7.810;2022-09-21T11:06:58;99230.47;;;19.39;63.17
1616;BME280;801;47.982;7.810;2022-09-21T11:09:32;99249.34;;;20.49;64.71
1616;BME280;801;47.982;7.810;2022-09-21T11:12:04;99240.19;;;20.90;47.50
1616;BME280;801;47.982;7.810;2022-09-21T11:14:41;99249.25;;;20.32;48.47
1616;BME280;801;47.982;7.810;2022-09-21T11:17:16;99241.19;;;21.34;45.21
1616;BME280;801;47.982;7.810;2022-09-21T11:19:49;99236.31;;;21.63;41.12
1616;BME280;801;47.982;7.810;2022-09-21T11:22:23;99227.78;;;21.64;41.03
1616;BME280;801;47.982;7.810;2022-09-21T11:24:55;99229.34;;;22.40;40.44
1616;BME280;801;47.982;7.810;2022-09-21T11:27:29;99230.94;;;22.24;41.01
1616;BME280;801;47.982;7.810;2022-09-21T11:30:03;99233.13;;;21.69;39.33
1616;BME280;801;47.982;7.810;2022-09-21T11:32:40;99222.59;;;22.29;40.24
1616;BME280;801;47.982;7.810;2022-09-21T11:35:31;99219.84;;;22.29;39.92
1616;BME280;801;47.982;7.810;2022-09-21T11:38:07;99217.41;;;22.36;39.24
1616;BME280;801;47.982;7.810;2022-09-21T11:41:07;99206.81;;;23.08;37.93
1616;BME280;801;47.982;7.810;2022-09-21T11:43:52;99204.09;;;23.37;39.77
1616;BME280;801;47.982;7.810;2022-09-21T11:46:28;99201.44;;;22.21;38.45
1616;BME280;801;47.982;7.810;2022-09-21T11:49:11;99206.94;;;22.55;38.64
1616;BME280;801;47.982;7.810;2022-09-21T11:51:53;99209.75;;;23.32;36.93
1616;BME280;801;47.982;7.810;2022-09-21T11:54:46;99209.75;;;23.32;37.90
1616;BME280;801;47.982;7.810;2022-09-21T11:57:20;99195.56;;;23.30;36.37
1616;BME280;801;47.982;7.810;2022-09-21T12:00:04;99191.91;;;23.56;35.28
1616;BME280;801;47.982;7.810;2022-09-21T12:03:00;99186.16;;;23.10;35.10
1616;BME280;801;47.982;7.810;2022-09-21T12:05:34;99181.19;;;23.42;36.35
1616;BME280;801;47.982;7.810;2022-09-21T12:08:25;99181.59;;;22.76;36.08
1616;BME280;801;47.982;7.810;2022-09-21T12:11:01;99177.97;;;23.91;36.97
1616;BME280;801;47.982;7.810;2022-09-21T12:13:35;99177.59;;;24.13;34.47
1616;BME280;801;47.982;7.810;2022-09-21T12:16:09;99186.06;;;24.62;33.70
1616;BME280;801;47.982;7.810;2022-09-21T12:18:43;99178.25;;;23.98;34.29
1616;BME280;801;47.982;7.810;2022-09-21T12:21:15;99176.63;;;24.51;34.59
1616;BME280;801;47.982;7.810;2022-09-21T12:23:45;99173.06;;;24.17;33.02
1616;BME280;801;47.982;7.810;2022-09-21T12:26:17;99168.28;;;25.05;33.28
1616;BME280;801;47.982;7.810;2022-09-21T12:28:47;99161.16;;;25.04;32.41
1616;BME280;801;47.982;7.810;2022-09-21T12:31:19;99161.72;;;24.98;32.91
1616;BME280;801;47.982;7.810;2022-09-21T12:33:51;99161.13;;;24.80;32.71
1616;BME280;801;47.982;7.810;2022-09-21T12:36:21;99162.00;;;24.59;32.45
1616;BME280;801;47.982;7.810;2022-09-21T12:38:56;99166.19;;;24.90;32.09
1616;BME280;801;47.982;7.810;2022-09-21T12:41:30;99154.97;;;25.57;30.46
1616;BME280;801;47.982;7.810;2022-09-21T12:44:03;99158.13;;;25.83;30.23
1616;BME280;801;47.982;7.810;2022-09-21T12:46:37;99161.63;;;25.06;31.52
1616;BME280;801;47.982;7.810;2022-09-21T12:49:11;99150.63;;;25.56;30.84
1616;BME280;801;47.982;7.810;2022-09-21T12:51:42;99154.66;;;25.34;31.50
1616;BME280;801;47.982;7.810;2022-09-21T12:54:17;99151.69;;;25.26;30.95
1616;BME280;801;47.982;7.810;2022-09-21T12:56:52;99153.47;;;24.85;29.40
1616;BME280;801;47.982;7.810;2022-09-21T12:59:29;99149.06;;;25.30;30.07
1616;BME280;801;47.982;7.810;2022-09-21T13:02:06;99137.53;;;26.05;29.36
1616;BME280;801;47.982;7.810;2022-09-21T13:04:47;99144.31;;;25.43;30.10
1616;BME280;801;47.982;7.810;2022-09-21T13:07:43;99141.03;;;25.37;31.70
1616;BME280;801;47.982;7.810;2022-09-21T13:10:18;99143.06;;;24.45;32.14
1616;BME280;801;47.982;7.810;2022-09-21T13:12:50;99140.50;;;24.28;32.51
1616;BME280;801;47.982;7.810;2022-09-21T13:15:22;99125.63;;;25.12;33.18
1616;BME280;801;47.982;7.810;2022-09-21T13:17:59;99128.84;;;24.77;33.12
1616;BME280;801;47.982;7.810;2022-09-21T13:20:33;99128.88;;;25.01;31.89
1616;BME280;801;47.982;7.810;2022-09-21T13:23:00;99127.72;;;25.15;30.91
1616;BME280;801;47.982;7.810;2022-09-21T13:25:29;99136.06;;;25.06;30.61
1616;BME280;801;47.982;7.810;2022-09-21T13:28:05;99126.00;;;25.35;30.32
1616;BME280;801;47.982;7.810;2022-09-21T13:30:44;99125.09;;;24.36;31.17
1616;BME280;801;47.982;7.810;2022-09-21T13:33:32;99129.66;;;24.32;31.28
1616;BME280;801;47.982;7.810;2022-09-21T13:36:10;99122.81;;;23.33;33.10
1616;BME280;801;47.982;7.810;2022-09-21T13:39:13;99127.38;;;24.34;31.99
1616;BME280;801;47.982;7.810;2022-09-21T13:41:41;99119.00;;;25.13;31.37
1616;BME280;801;47.982;7.810;2022-09-21T13:44:19;99113.63;;;25.16;31.11
1616;BME280;801;47.982;7.810;2022-09-21T13:46:53;99121.72;;;25.62;30.28
1616;BME280;801;47.982;7.810;2022-09-21T13:49:33;99113.78;;;25.73;30.33
1616;BME280;801;47.982;7.810;2022-09-21T13:52:21;99112.81;;;25.40;31.20
1616;BME280;801;47.982;7.810;2022-09-21T13:54:52;99112.59;;;25.09;30.86
1616;BME280;801;47.982;7.810;2022-09-21T13:57:26;99115.75;;;25.60;31.11
1616;BME280;801;47.982;7.810;2022-09-21T14:03:02;99116.56;;;23.74;32.03
1616;BME280;801;47.982;7.810;2022-09-21T14:05:33;99112.09;;;23.91;33.92
1616;BME280;801;47.982;7.810;2022-09-21T14:08:04;99113.63;;;24.92;31.84
1616;BME280;801;47.982;7.810;2022-09-21T14:10:34;99102.63;;;25.41;32.58
1616;BME280;801;47.982;7.810;2022-09-21T14:13:05;99101.44;;;25.54;33.40
1616;BME280;801;47.982;7.810;2022-09-21T14:15:41;99112.53;;;25.70;31.19
1616;BME280;801;47.982;7.810;2022-09-21T14:18:19;99112.31;;;26.47;30.54
1616;BME280;801;47.982;7.810;2022-09-21T14:21:12;99121.13;;;25.56;31.49
1616;BME280;801;47.982;7.810;2022-09-21T14:24:18;99117.13;;;25.54;32.77
1616;BME280;801;47.982;7.810;2022-09-21T14:27:05;99113.13;;;26.48;30.96
1616;BME280;801;47.982;7.810;2022-09-21T14:29:43;99123.22;;;26.28;31.66
1616;BME280;801;47.982;7.810;2022-09-21T14:32:15;99097.22;;;24.71;30.49
1616;BME280;801;47.982;7.810;2022-09-21T14:34:46;99109.72;;;25.54;30.92
1616;BME280;801;47.982;7.810;2022-09-21T14:37:23;99107.41;;;25.07;32.28
1616;BME280;801;47.982;7.810;2022-09-21T14:39:53;99108.22;;;25.44;32.34
1616;BME280;801;47.982;7.810;2022-09-21T14:42:23;99108.22;;;25.44;32.18
1616;BME280;801;47.982;7.810;2022-09-21T14:44:56;99113.59;;;25.94;31.97
1616;BME280;801;47.982;7.810;2022-09-21T14:47:35;99108.81;;;25.91;32.82
1616;BME280;801;47.982;7.810;2022-09-21T14:50:16;99107.38;;;25.56;31.80
1616;BME280;801;47.982;7.810;2022-09-21T14:53:02;99110.66;;;25.74;30.75
1616;BME280;801;47.982;7.810;2022-09-21T14:55:47;99105.97;;;26.31;31.20
1616;BME280;801;47.982;7.810;2022-09-21T14:58:28;99104.56;;;25.81;29.61
1616;BME280;801;47.982;7.810;2022-09-21T15:01:21;99109.81;;;25.98;30.26
1616;BME280;801;47.982;7.810;2022-09-21T15:04:08;99111.81;;;25.73;31.52
1616;BME280;801;47.982;7.810;2022-09-21T15:06:44;99105.25;;;25.00;32.64
1616;BME280;801;47.982;7.810;2022-09-21T15:09:44;99109.59;;;25.14;32.80
1616;BME280;801;47.982;7.810;2022-09-21T15:12:40;99101.06;;;24.45;33.39
1616;BME280;801;47.982;7.810;2022-09-21T15:15:25;99109.25;;;24.54;32.52
1616;BME280;801;47.982;7.810;2022-09-21T15:17:57;99100.22;;;24.65;32.70
1616;BME280;801;47.982;7.810;2022-09-21T15:20:28;99101.91;;;24.58;33.33
1616;BME280;801;47.982;7.810;2022-09-21T15:22:56;99108.09;;;24.21;33.88
1616;BME280;801;47.982;7.810;2022-09-21T15:25:24;99109.50;;;25.10;33.38
1616;BME280;801;47.982;7.810;2022-09-21T15:27:53;99118.38;;;24.24;33.57
1616;BME280;801;47.982;7.810;2022-09-21T15:30:23;99114.84;;;24.57;33.78
1616;BME280;801;47.982;7.810;2022-09-21T15:32:53;99103.34;;;24.43;34.41
1616;BME280;801;47.982;7.810;2022-09-21T15:35:20;99110.03;;;24.54;33.80
1616;BME280;801;47.982;7.810;2022-09-21T15:37:48;99106.28;;;24.26;33.91
1616;BME280;801;47.982;7.810;2022-09-21T15:40:17;99105.72;;;23.57;34.19
1616;BME280;801;47.982;7.810;2022-09-21T15:42:57;99111.63;;;23.89;33.59
1616;BME280;801;47.982;7.810;2022-09-21T15:45:26;99116.63;;;23.66;33.68
1616;BME280;801;47.982;7.810;2022-09-21T15:47:53;99110.88;;;23.58;34.48
1616;BME280;801;47.982;7.810;2022-09-21T15:50:23;99113.41;;;23.42;34.54
1616;BME280;801;47.982;7.810;2022-09-21T15:52:53;99106.13;;;23.68;34.92
1616;BME280;801;47.982;7.810;2022-09-21T15:55:22;99115.78;;;23.95;34.96
1616;BME280;801;47.982;7.810;2022-09-21T15:57:50;99108.34;;;23.74;34.61
1616;BME280;801;47.982;7.810;2022-09-21T16:00:23;99110.56;;;23.60;35.08
1616;BME280;801;47.982;7.810;2022-09-21T16:03:02;99113.63;;;23.79;34.50
1616;BME280;801;47.982;7.810;2022-09-21T16:05:32;99113.59;;;24.21;34.83
1616;BME280;801;47.982;7.810;2022-09-21T16:08:13;99113.41;;;23.13;35.44
1616;BME280;801;47.982;7.810;2022-09-21T16:10:41;99113.78;;;23.32;35.60
1616;BME280;801;47.982;7.810;2022-09-21T16:13:17;99116.28;;;22.87;37.86
1616;BME280;801;47.982;7.810;2022-09-21T16:16:05;99121.31;;;22.76;36.73
1616;BME280;801;47.982;7.810;2022-09-21T16:18:40;99124.28;;;23.00;36.36
1616;BME280;801;47.982;7.810;2022-09-21T16:21:15;99118.03;;;22.91;36.41
1616;BME280;801;47.982;7.810;2022-09-21T16:23:45;99120.69;;;22.62;36.78
1616;BME280;801;47.982;7.810;2022-09-21T16:26:23;99116.50;;;23.11;37.45
1616;BME280;801;47.982;7.810;2022-09-21T16:31:40;99129.34;;;22.81;37.26
1616;BME280;801;47.982;7.810;2022-09-21T16:34:19;99131.22;;;22.59;36.31
1616;BME280;801;47.982;7.810;2022-09-21T16:36:50;99122.56;;;22.40;37.17
1616;BME280;801;47.982;7.810;2022-09-21T16:39:19;99134.59;;;22.56;37.39